Time;durP1;ratioP1;P1;durP2;ratioP2;P2;SDS_P1;SDS_P2;PMS_P1;PMS_P2;Temp;Humidity;BMP_temperature;BMP_pressure;BME280_temperature;BME280_humidity;BME280_pressure;Samples;Min_cycle;Max_cycle;Signal;HPM_P1;HPM_P2
2021/12/09 05:00:38;;;;;;;;;1.00;1.00;;;;;7.88;56.92;100281.19;6080560;23;46385;-84
2021/12/09 05:03:08;;;;;;;;;2.00;2.00;;;;;7.99;56.39;100305.53;6094191;23;45271;-84
2021/12/09 05:05:38;;;;;;;;;1.67;1.00;;;;;8.00;56.80;100299.28;6067674;23;45399;-85
2021/12/09 05:08:10;;;;;;;;;1.33;1.00;;;;;8.24;56.68;100334.56;6068113;23;45364;-84
2021/12/09 05:10:52;;;;;;;;;1.00;1.00;;;;;7.76;56.86;100245.41;6094138;23;45462;-84
2021/12/09 05:13:18;;;;;;;;;0.67;0.67;;;;;8.09;56.96;100316.63;6068046;23;45892;-84
2021/12/09 05:15:45;;;;;;;;;2.00;1.00;;;;;8.11;56.99;100310.31;6067740;23;45494;-84
2021/12/09 05:18:10;;;;;;;;;0.00;0.00;;;;;7.94;56.74;100288.94;6094680;23;45431;-84
2021/12/09 05:20:36;;;;;;;;;2.33;1.00;;;;;7.47;56.97;100214.72;6093544;23;45968;-85
2021/12/09 05:23:01;;;;;;;;;3.33;1.00;;;;;7.93;56.89;100292.47;6067560;23;45696;-85
2021/12/09 05:25:27;;;;;;;;;3.67;1.00;;;;;7.60;56.67;100234.53;6094174;23;45234;-85
2021/12/09 05:27:53;;;;;;;;;0.33;0.33;;;;;7.86;56.46;100291.88;6093673;23;45258;-84
2021/12/09 05:30:24;;;;;;;;;1.00;1.00;;;;;7.80;56.88;100274.41;6094074;23;46278;-84
2021/12/09 05:32:49;;;;;;;;;0.33;0.00;;;;;7.75;56.76;100273.75;6093529;23;45424;-84
2021/12/09 05:35:15;;;;;;;;;3.00;1.33;;;;;7.73;57.16;100261.47;6094720;23;45374;-85
2021/12/09 05:37:41;;;;;;;;;1.33;1.00;;;;;8.01;56.91;100324.91;6094023;23;45311;-84
2021/12/09 05:40:07;;;;;;;;;1.00;0.33;;;;;7.93;56.89;100311.91;6094244;23;46154;-85
2021/12/09 05:42:32;;;;;;;;;1.33;0.00;;;;;7.67;56.67;100256.38;6093875;23;45327;-84
2021/12/09 05:44:59;;;;;;;;;1.00;1.00;;;;;7.77;57.05;100281.63;6094136;23;45195;-84
2021/12/09 05:47:25;;;;;;;;;1.00;1.00;;;;;8.19;56.77;100352.47;6068456;23;45548;-84
2021/12/09 05:49:50;;;;;;;;;1.00;1.00;;;;;7.90;57.24;100303.22;6093270;23;45402;-85
2021/12/09 05:52:16;;;;;;;;;1.67;1.67;;;;;8.07;56.94;100326.44;6093835;23;45410;-84
2021/12/09 05:54:42;;;;;;;;;1.67;1.00;;;;;8.17;56.67;100359.63;6092194;23;45350;-84
2021/12/09 05:57:08;;;;;;;;;0.67;0.67;;;;;7.77;57.07;100278.97;6095273;23;45375;-85
2021/12/09 05:59:33;;;;;;;;;2.67;2.00;;;;;8.21;56.54;100342.66;6094148;23;45337;-84
2021/12/09 06:01:59;;;;;;;;;2.33;1.00;;;;;8.01;56.49;100303.66;6092943;23;45323;-85
2021/12/09 06:04:24;;;;;;;;;2.00;2.00;;;;;8.11;56.42;100331.56;6095429;23;45596;-85
2021/12/09 06:06:51;;;;;;;;;1.33;1.33;;;;;7.80;56.49;100273.56;6067924;23;45392;-83
2021/12/09 06:09:17;;;;;;;;;1.33;0.33;;;;;7.94;56.52;100289.78;6094599;23;46155;-83
2021/12/09 06:11:49;;;;;;;;;2.00;1.00;;;;;8.34;56.17;100362.50;6093670;23;45216;-83
2021/12/09 06:14:14;;;;;;;;;2.00;2.00;;;;;8.03;56.35;100310.66;6094413;23;45481;-85
2021/12/09 06:16:40;;;;;;;;;1.67;1.67;;;;;8.15;56.30;100334.97;6094401;23;45513;-85
2021/12/09 06:19:05;;;;;;;;;2.00;2.00;;;;;8.03;56.28;100318.59;6094111;23;45378;-83
2021/12/09 06:21:31;;;;;;;;;2.00;1.00;;;;;8.35;56.10;100379.28;6093298;23;45344;-77
2021/12/09 06:23:59;;;;;;;;;1.33;1.33;;;;;8.07;56.07;100352.97;6093904;23;45472;-80
2021/12/09 06:26:26;;;;;;;;;0.33;0.33;;;;;7.71;56.92;100349.03;6094759;23;45393;-80
2021/12/09 06:28:52;;;;;;;;;2.00;2.00;;;;;7.67;57.87;100376.59;6093229;23;46393;-80
2021/12/09 06:31:19;;;;;;;;;4.00;2.00;;;;;7.88;57.68;100374.06;6094144;23;45457;-84
2021/12/09 06:33:45;;;;;;;;;4.00;4.00;;;;;8.04;57.03;100378.72;6094320;23;45383;-82
2021/12/09 06:36:10;;;;;;;;;3.67;1.67;;;;;7.94;56.44;100345.50;6094587;23;45240;-78
2021/12/09 06:38:36;;;;;;;;;3.67;2.67;;;;;8.10;56.33;100363.47;6093985;23;46287;-83
2021/12/09 06:41:01;;;;;;;;;3.00;3.00;;;;;7.96;56.67;100330.41;6094283;23;45397;-81
2021/12/09 06:43:27;;;;;;;;;3.00;3.00;;;;;7.93;56.09;100314.56;6094199;23;45303;-81
2021/12/09 06:45:54;;;;;;;;;4.00;4.00;;;;;8.37;56.41;100388.06;6093859;23;45561;-79
2021/12/09 06:48:21;;;;;;;;;2.00;2.00;;;;;8.37;56.35;100380.94;6094302;23;45490;-81
2021/12/09 06:50:47;;;;;;;;;4.67;3.00;;;;;8.30;56.10;100383.91;6093209;23;45385;-81
2021/12/09 06:53:14;;;;;;;;;2.67;2.67;;;;;8.34;56.35;100386.38;6094264;23;45361;-79
2021/12/09 06:55:40;;;;;;;;;2.00;2.00;;;;;8.39;55.81;100387.06;6094465;23;45385;-81
2021/12/09 06:58:06;;;;;;;;;3.33;3.00;;;;;8.39;56.14;100372.94;6093045;23;45996;-82
2021/12/09 07:00:34;;;;;;;;;1.33;1.33;;;;;8.54;55.61;100398.88;6093385;23;45231;-82
2021/12/09 07:02:59;;;;;;;;;2.67;2.67;;;;;8.21;54.93;100338.22;6094500;23;45225;-83
2021/12/09 07:05:27;;;;;;;;;1.00;1.00;;;;;8.53;55.35;100386.53;6091953;23;45428;-81
2021/12/09 07:07:53;;;;;;;;;5.00;5.00;;;;;8.64;55.23;100386.09;6094365;23;46064;-82
2021/12/09 07:10:21;;;;;;;;;4.33;3.00;;;;;8.70;56.24;100390.28;6094255;23;45397;-82
2021/12/09 07:12:47;;;;;;;;;3.67;2.00;;;;;8.32;54.87;100334.28;6093908;23;45202;-83
2021/12/09 07:15:13;;;;;;;;;3.33;2.00;;;;;8.22;55.39;100361.19;6095109;23;45207;-87
2021/12/09 07:17:39;;;;;;;;;5.00;3.00;;;;;8.36;55.38;100367.75;6094952;23;45312;-87
2021/12/09 07:20:08;;;;;;;;;6.67;4.67;;;;;7.85;55.49;100276.03;6094612;23;45361;-87
2021/12/09 07:22:34;;;;;;;;;3.00;2.00;;;;;8.10;55.67;100336.91;6094853;23;45248;-87
2021/12/09 07:24:59;;;;;;;;;3.00;2.00;;;;;8.15;55.24;100322.56;6094832;23;45239;-83
2021/12/09 07:27:24;;;;;;;;;3.67;2.67;;;;;8.64;54.90;100405.56;6092745;23;46114;-83
2021/12/09 07:29:50;;;;;;;;;3.33;3.00;;;;;8.51;54.52;100367.13;6090271;23;45492;-80
2021/12/09 07:32:15;;;;;;;;;5.00;2.67;;;;;8.61;54.30;100354.34;6091150;23;45632;-83
2021/12/09 07:34:41;;;;;;;;;5.33;3.00;;;;;8.51;54.05;100334.41;6093093;23;45340;-87
2021/12/09 07:37:06;;;;;;;;;3.00;3.00;;;;;8.54;54.21;100340.44;6093116;23;45325;-88
2021/12/09 07:39:33;;;;;;;;;4.00;4.00;;;;;8.87;54.17;100391.31;6067187;23;45389;-84
2021/12/09 07:41:59;;;;;;;;;4.00;3.00;;;;;8.75;53.97;100380.31;6067512;23;45285;-83
2021/12/09 07:44:26;;;;;;;;;38.75;31.75;;;;;8.84;54.30;100401.19;6092218;23;45502;-83
2021/12/09 07:46:54;;;;;;;;;5.00;3.67;;;;;8.82;54.38;100401.25;6091804;23;46497;-85
2021/12/09 07:49:20;;;;;;;;;4.00;3.00;;;;;8.55;54.16;100355.47;6091082;23;45398;-84
2021/12/09 07:51:46;;;;;;;;;5.00;5.00;;;;;8.81;54.41;100401.34;6093833;23;45372;-87
2021/12/09 07:54:11;;;;;;;;;5.00;5.00;;;;;8.55;54.30;100355.47;6066734;23;45469;-83
2021/12/09 07:56:37;;;;;;;;;3.00;3.00;;;;;7.78;54.38;100244.44;6066636;23;46962;-83
2021/12/09 07:59:02;;;;;;;;;4.67;3.67;;;;;7.83;54.99;100253.06;6067440;23;45316;-84
2021/12/09 08:01:29;;;;;;;;;5.67;4.00;;;;;8.15;54.37;100324.34;6066321;23;45368;-83
2021/12/09 08:03:55;;;;;;;;;2.33;1.00;;;;;8.07;54.56;100313.16;6093594;23;45406;-84
2021/12/09 08:06:21;;;;;;;;;6.67;3.00;;;;;8.33;54.48;100371.38;6093106;23;46069;-83
2021/12/09 08:08:46;;;;;;;;;3.33;3.33;;;;;8.49;54.81;100415.94;6093759;23;45342;-88
2021/12/09 08:11:11;;;;;;;;;3.67;2.00;;;;;8.52;54.91;100424.66;6093742;23;45380;-86
2021/12/09 08:13:37;;;;;;;;;4.00;4.00;;;;;7.66;54.51;100287.34;6093959;23;45520;-86
2021/12/09 08:16:02;;;;;;;;;4.33;3.67;;;;;7.98;54.72;100327.66;6067416;23;47283;-85
2021/12/09 08:18:31;;;;;;;;;6.00;5.00;;;;;8.22;55.17;100366.50;6092744;23;45379;-86
2021/12/09 08:21:01;;;;;;;;;1.00;1.00;;;;;8.52;54.62;100413.16;6093067;23;45401;-84
2021/12/09 08:23:28;;;;;;;;;4.00;4.00;;;;;8.52;54.72;100410.50;6066866;23;45399;-86
2021/12/09 08:25:56;;;;;;;;;7.00;5.33;;;;;8.52;54.76;100411.38;6093085;23;45352;-85
2021/12/09 08:28:23;;;;;;;;;3.33;3.33;;;;;8.50;54.78;100402.59;6066609;23;45284;-83
2021/12/09 08:30:50;;;;;;;;;4.33;2.33;;;;;8.32;54.59;100371.44;6093195;23;45346;-84
2021/12/09 08:33:20;;;;;;;;;2.67;2.67;;;;;8.48;54.79;100409.78;6093353;23;45874;-84
2021/12/09 08:35:46;;;;;;;;;3.67;3.67;;;;;8.49;54.47;100406.16;6066074;23;47149;-79
2021/12/09 08:38:12;;;;;;;;;6.33;4.00;;;;;8.51;55.19;100406.97;6093341;23;45358;-80
2021/12/09 08:40:37;;;;;;;;;3.67;3.33;;;;;8.30;54.77;100368.84;6092475;23;45517;-78
2021/12/09 08:43:03;;;;;;;;;71.50;55.75;;;;;8.29;55.09;100368.91;6093324;23;45403;-80
2021/12/09 08:45:29;;;;;;;;;21.67;16.67;;;;;8.42;54.64;100386.97;6093187;23;45402;-81
2021/12/09 08:47:54;;;;;;;;;4.00;4.00;;;;;8.47;54.98;100397.41;6093175;23;45402;-80
2021/12/09 08:50:22;;;;;;;;;6.33;4.67;;;;;8.59;54.60;100410.22;6093575;23;45385;-81
2021/12/09 08:52:50;;;;;;;;;3.00;3.00;;;;;8.28;54.64;100372.50;6093446;23;45341;-82
2021/12/09 08:55:17;;;;;;;;;7.67;6.00;;;;;8.44;54.86;100402.84;6067401;23;48346;-82
2021/12/09 08:57:43;;;;;;;;;7.00;4.00;;;;;8.29;54.60;100380.41;6093011;23;45469;-81
2021/12/09 09:00:12;;;;;;;;;5.67;5.00;;;;;8.62;54.88;100441.94;6066471;23;45372;-82
2021/12/09 09:02:40;;;;;;;;;3.00;3.00;;;;;8.46;54.72;100408.97;6062568;23;45369;-83
2021/12/09 09:05:08;;;;;;;;;4.00;4.00;;;;;8.77;54.52;100451.06;6063605;23;45376;-82
2021/12/09 09:07:33;;;;;;;;;5.00;5.00;;;;;8.68;54.78;100430.19;6062870;23;45394;-82
2021/12/09 09:09:59;;;;;;;;;6.00;2.33;;;;;8.52;54.30;100398.09;6063598;23;45271;-81
2021/12/09 09:12:24;;;;;;;;;3.00;3.00;;;;;8.87;54.42;100459.53;6064103;23;45400;-81
2021/12/09 09:14:49;;;;;;;;;9.33;6.00;;;;;8.80;54.56;100453.63;6036605;23;47007;-82
2021/12/09 09:17:15;;;;;;;;;3.00;3.00;;;;;8.58;54.59;100408.47;6063303;23;57311;-82
2021/12/09 09:19:40;;;;;;;;;3.00;3.00;;;;;8.96;54.35;100467.13;6063510;23;45842;-82
2021/12/09 09:22:06;;;;;;;;;5.00;5.00;;;;;8.68;54.69;100405.44;6064468;23;45418;-82
2021/12/09 09:24:32;;;;;;;;;3.67;3.33;;;;;8.98;54.11;100459.94;6063421;23;45374;-82
2021/12/09 09:26:57;;;;;;;;;4.67;3.00;;;;;9.13;53.81;100471.75;6063835;23;45389;-82
2021/12/09 09:29:24;;;;;;;;;3.67;3.67;;;;;9.16;54.35;100471.63;6063359;23;45361;-83
2021/12/09 09:31:50;;;;;;;;;2.33;2.33;;;;;9.15;54.17;100474.34;6038349;23;45600;-83
2021/12/09 09:34:15;;;;;;;;;2.33;2.33;;;;;9.06;54.31;100452.53;6064325;23;45393;-82
2021/12/09 09:36:44;;;;;;;;;5.33;4.00;;;;;8.98;54.01;100424.53;6063567;23;45467;-82
2021/12/09 09:39:20;;;;;;;;;4.33;4.33;;;;;8.83;53.96;100400.34;6064150;23;45253;-83
2021/12/09 09:42:00;;;;;;;;;5.00;2.67;;;;;9.13;53.91;100466.44;6063536;23;45440;-83
2021/12/09 09:44:44;;;;;;;;;2.67;2.00;;;;;9.05;53.77;100441.97;6063568;23;46533;-84
2021/12/09 09:47:10;;;;;;;;;3.00;1.33;;;;;9.09;53.71;100444.41;6037936;23;45413;-82
2021/12/09 09:49:36;;;;;;;;;3.00;3.00;;;;;8.93;53.47;100413.25;6063362;23;45747;-82
2021/12/09 09:52:01;;;;;;;;;4.67;3.33;;;;;9.43;53.61;100504.13;6064278;23;45373;-82
2021/12/09 09:54:27;;;;;;;;;4.00;4.00;;;;;9.18;53.87;100461.78;6063984;23;45391;-82
2021/12/09 09:56:53;;;;;;;;;4.00;3.00;;;;;9.09;53.47;100443.56;6062990;23;45331;-82
2021/12/09 09:59:20;;;;;;;;;6.00;4.67;;;;;9.06;53.68;100427.72;6037673;23;45369;-83
2021/12/09 10:01:49;;;;;;;;;6.00;4.33;;;;;9.47;53.48;100492.44;6082775;23;45417;-82
2021/12/09 10:04:25;;;;;;;;;4.33;3.00;;;;;9.50;53.45;100497.66;6092542;23;45433;-82
2021/12/09 10:06:52;;;;;;;;;4.00;4.00;;;;;9.35;53.96;100462.84;6092028;23;45500;-83
2021/12/09 10:09:17;;;;;;;;;5.00;3.67;;;;;9.59;53.47;100485.72;6093619;23;45342;-81
2021/12/09 10:11:43;;;;;;;;;4.00;3.67;;;;;9.44;53.69;100468.63;6067088;23;45293;-83
2021/12/09 10:14:10;;;;;;;;;3.33;3.00;;;;;9.59;53.44;100483.06;6066392;23;47965;-82
2021/12/09 10:16:38;;;;;;;;;2.33;2.33;;;;;9.42;53.51;100449.22;6092449;23;45361;-83
2021/12/09 10:19:12;;;;;;;;;1.33;1.33;;;;;9.66;54.02;100491.63;6093372;23;45424;-83
2021/12/09 10:21:38;;;;;;;;;2.33;2.00;;;;;9.69;53.66;100483.50;6092843;23;45433;-83
2021/12/09 10:24:07;;;;;;;;;4.00;4.00;;;;;9.44;53.69;100428.75;6065884;23;47924;-85
2021/12/09 10:26:36;;;;;;;;;17.33;12.67;;;;;9.60;53.49;100444.91;6092887;23;45426;-84
2021/12/09 10:29:27;;;;;;;;;6.00;3.00;;;;;9.25;53.50;100370.19;6092217;23;45499;-84
2021/12/09 10:32:00;;;;;;;;;4.00;4.00;;;;;9.34;53.39;100383.97;6092959;23;45309;-84
2021/12/09 10:34:46;;;;;;;;;3.00;3.00;;;;;9.75;53.79;100453.13;6092729;23;45604;-84
2021/12/09 10:37:20;;;;;;;;;3.00;3.00;;;;;9.78;53.44;100445.84;6092265;23;45573;-83
2021/12/09 10:39:55;;;;;;;;;6.00;4.33;;;;;9.20;53.71;100347.38;6092785;23;45343;-85
2021/12/09 10:42:35;;;;;;;;;5.67;4.67;;;;;8.95;53.93;100313.06;6093026;23;45370;-84
2021/12/09 10:45:07;;;;;;;;;3.67;3.67;;;;;8.86;53.75;100295.69;6092554;23;45352;-84
2021/12/09 10:50:11;;;;;;;;;3.33;3.00;;;;;9.81;53.61;100432.41;6092440;23;45390;-84
2021/12/09 10:52:43;;;;;;;;;4.33;3.33;;;;;9.73;53.63;100421.25;6092573;23;45338;-83
2021/12/09 10:55:20;;;;;;;;;3.67;3.67;;;;;9.90;53.54;100439.09;6092247;23;45951;-83
2021/12/09 10:57:57;;;;;;;;;6.33;5.33;;;;;9.99;53.71;100432.50;6092200;23;45445;-84
2021/12/09 11:00:28;;;;;;;;;2.00;2.00;;;;;10.05;53.37;100427.75;6066433;23;45490;-83
2021/12/09 11:03:02;;;;;;;;;3.00;3.00;;;;;10.13;53.15;100433.56;6093082;23;45312;-83
2021/12/09 11:05:29;;;;;;;;;6.00;3.00;;;;;9.98;52.95;100388.19;6092826;23;45431;-83
2021/12/09 11:08:12;;;;;;;;;3.33;3.33;;;;;10.20;52.67;100430.63;6092202;23;45310;-83
2021/12/09 11:10:45;;;;;;;;;3.33;3.33;;;;;10.21;52.75;100419.03;6091881;23;45249;-83
2021/12/09 11:13:11;;;;;;;;;5.00;4.00;;;;;9.76;52.31;100343.06;6093039;23;45416;-84
2021/12/09 11:15:49;;;;;;;;;5.33;5.00;;;;;10.21;53.05;100408.38;6092413;23;46523;-84
2021/12/09 11:18:39;;;;;;;;;4.00;4.00;;;;;10.04;52.73;100377.22;6092196;23;45406;-84
2021/12/09 11:21:09;;;;;;;;;5.00;3.00;;;;;10.30;52.60;100414.19;6092010;23;45441;-83
2021/12/09 11:23:42;;;;;;;;;4.00;4.00;;;;;10.19;52.49;100392.50;6066291;23;45450;-83
2021/12/09 11:26:30;;;;;;;;;3.00;3.00;;;;;10.41;53.11;100410.97;6092439;23;45680;-84
2021/12/09 11:29:05;;;;;;;;;4.33;3.00;;;;;10.50;52.50;100415.00;6066601;23;45637;-84
2021/12/09 11:31:34;;;;;;;;;3.00;2.00;;;;;10.53;52.06;100410.38;6093527;23;45451;-83
2021/12/09 11:34:08;;;;;;;;;2.00;2.00;;;;;10.21;51.96;100356.00;6093838;23;45423;-85
2021/12/09 11:36:42;;;;;;;;;4.67;3.33;;;;;10.67;52.06;100414.19;6097731;23;45998;-84
2021/12/09 11:39:18;;;;;;;;;2.67;1.33;;;;;10.71;51.90;100405.94;6099088;23;45266;-82
2021/12/09 11:41:44;;;;;;;;;3.00;1.00;;;;;10.75;51.31;100402.19;6066941;23;45378;-87
2021/12/09 11:44:10;;;;;;;;;2.00;2.00;;;;;10.50;51.67;100343.91;6092705;23;45359;-83
2021/12/09 11:46:41;;;;;;;;;3.67;2.67;;;;;10.66;51.73;100365.34;6063576;23;47192;-83
2021/12/09 11:49:07;;;;;;;;;3.00;2.00;;;;;10.52;51.14;100342.03;6091738;23;45513;-83
2021/12/09 11:51:33;;;;;;;;;5.00;3.33;;;;;10.85;51.23;100389.28;6093085;23;45423;-83
2021/12/09 11:54:02;;;;;;;;;3.00;2.00;;;;;10.67;51.59;100355.53;6093148;23;45425;-84
2021/12/09 11:56:39;;;;;;;;;3.00;3.00;;;;;10.90;51.70;100392.56;6092552;23;46377;-84
2021/12/09 12:11:18;;;;;;;;;2.00;2.00;;;;;11.08;51.36;100384.56;6093877;23;45343;-86
2021/12/09 12:13:59;;;;;;;;;2.00;1.00;;;;;11.13;51.05;100378.06;6067621;23;45331;-85
2021/12/09 12:16:43;;;;;;;;;3.00;2.00;;;;;11.20;51.68;100381.25;6067627;23;45376;-85
2021/12/09 12:19:33;;;;;;;;;2.00;2.00;;;;;11.04;51.30;100353.66;6093558;23;46553;-85
2021/12/09 12:22:22;;;;;;;;;2.67;2.67;;;;;11.20;50.98;100359.94;6067658;23;45304;-84
2021/12/09 12:25:10;;;;;;;;;4.67;3.00;;;;;11.05;50.64;100328.72;6092416;23;45528;-84
2021/12/09 12:27:55;;;;;;;;;4.00;4.00;;;;;11.15;50.66;100337.97;6093962;23;45552;-82
2021/12/09 12:33:09;;;;;;;;;4.33;2.00;;;;;11.38;51.11;100360.78;6091782;23;45369;-83
2021/12/09 12:41:02;;;;;;;;;3.67;3.67;;;;;11.41;50.66;100363.25;6093142;23;45229;-85
2021/12/09 12:43:29;;;;;;;;;3.00;3.00;;;;;11.45;50.78;100369.28;6066254;23;45465;-85
2021/12/09 12:46:09;;;;;;;;;3.67;2.00;;;;;11.14;50.44;100313.09;6093798;23;45414;-84
2021/12/09 12:51:35;;;;;;;;;3.00;3.00;;;;;11.52;50.59;100371.56;6092954;23;46124;-86
2021/12/09 12:54:04;;;;;;;;;2.00;2.00;;;;;11.43;50.54;100353.38;6066791;23;45683;-86
2021/12/09 12:56:32;;;;;;;;;2.67;2.67;;;;;11.60;50.06;100365.81;6092540;23;45246;-84
2021/12/09 12:59:05;;;;;;;;;6.33;3.00;;;;;11.63;50.23;100376.31;6093817;23;45402;-84
2021/12/09 13:01:30;;;;;;;;;3.33;2.00;;;;;11.41;49.94;100331.25;6091726;23;45458;-85
2021/12/09 13:04:02;;;;;;;;;3.00;2.00;;;;;11.25;50.38;100311.66;6066446;23;45309;-85
2021/12/09 13:06:42;;;;;;;;;3.00;2.67;;;;;11.45;50.35;100324.81;6093546;23;45319;-86
2021/12/09 13:09:37;;;;;;;;;6.00;3.00;;;;;11.70;50.06;100376.84;6093937;23;45279;-85
2021/12/09 13:12:07;;;;;;;;;3.67;2.00;;;;;11.65;50.02;100352.22;6093040;23;46580;-84
2021/12/09 13:14:53;;;;;;;;;1.67;1.67;;;;;11.73;50.04;100357.97;6092601;23;45247;-85
2021/12/09 13:17:52;;;;;;;;;1.67;1.67;;;;;11.75;49.92;100364.97;6092805;23;45391;-86
2021/12/09 13:20:31;;;;;;;;;6.00;3.00;;;;;11.25;49.74;100267.16;6093457;23;45342;-87
2021/12/09 13:23:35;;;;;;;;;5.00;4.00;;;;;11.83;49.40;100364.56;6066785;23;47979;-87
2021/12/09 13:26:21;;;;;;;;;4.00;4.00;;;;;11.57;49.72;100309.94;6036853;23;45419;-87
2021/12/09 13:29:01;;;;;;;;;2.33;2.33;;;;;11.75;49.87;100330.28;6060588;23;45367;-82
2021/12/09 13:32:18;;;;;;;;;3.00;2.67;;;;;11.88;49.35;100351.84;6061047;23;46095;-83
2021/12/09 13:35:02;;;;;;;;;4.00;2.67;;;;;11.97;49.45;100355.81;6059660;23;46014;-82
2021/12/09 13:37:47;;;;;;;;;2.00;2.00;;;;;11.81;48.99;100337.94;6035396;23;45477;-81
2021/12/09 13:48:23;;;;;;;;;2.00;2.00;;;;;11.80;48.94;100349.56;6061050;23;45586;-82
2021/12/09 13:50:56;;;;;;;;;6.00;3.00;;;;;11.79;49.11;100363.84;6060211;23;45359;-83
2021/12/09 13:56:10;;;;;;;;;3.00;3.00;;;;;11.56;49.24;100340.22;6067590;23;45800;-83
2021/12/09 13:58:36;;;;;;;;;3.00;2.00;;;;;11.44;49.76;100319.53;6092604;23;45422;-83
2021/12/09 14:01:02;;;;;;;;;3.33;1.33;;;;;11.47;49.62;100322.03;6092574;23;45843;-83
2021/12/09 14:03:27;;;;;;;;;2.00;2.00;;;;;11.64;49.42;100353.16;6092934;23;45520;-82
2021/12/09 14:05:56;;;;;;;;;4.33;2.00;;;;;11.64;49.87;100354.03;6092623;23;45944;-82
2021/12/09 14:08:36;;;;;;;;;4.00;3.00;;;;;11.62;49.75;100347.91;6067240;23;45818;-82
2021/12/09 14:11:28;;;;;;;;;4.00;3.00;;;;;11.53;49.83;100324.38;6092708;23;45271;-82
2021/12/09 14:14:12;;;;;;;;;6.33;2.00;;;;;11.41;50.00;100305.41;6093427;23;45301;-81
2021/12/09 14:16:56;;;;;;;;;4.00;2.00;;;;;11.62;49.90;100332.75;6092205;23;46005;-82
2021/12/09 14:22:44;;;;;;;;;6.00;3.67;;;;;11.51;49.97;100308.44;6092937;23;45312;-82
2021/12/09 14:25:12;;;;;;;;;3.00;3.00;;;;;11.35;50.25;100295.06;6092652;23;45769;-82
2021/12/09 14:27:38;;;;;;;;;3.67;3.67;;;;;11.55;49.66;100322.50;6065703;23;47476;-82
2021/12/09 14:30:09;;;;;;;;;3.67;3.67;;;;;11.41;50.37;100310.75;6092834;23;45434;-82
2021/12/09 14:32:34;;;;;;;;;6.67;3.67;;;;;11.44;50.62;100311.53;6092198;23;45439;-82
2021/12/09 14:35:03;;;;;;;;;35.67;30.67;;;;;11.47;50.52;100320.25;6092941;23;45492;-81
2021/12/09 14:37:31;;;;;;;;;4.00;2.00;;;;;11.46;50.32;100314.97;6092602;23;46234;-82
2021/12/09 14:40:22;;;;;;;;;4.00;4.00;;;;;11.44;50.42;100320.38;6092151;23;45351;-83
2021/12/09 14:42:55;;;;;;;;;4.67;4.00;;;;;11.43;50.20;100332.03;6092367;23;45762;-84
2021/12/09 14:45:22;;;;;;;;;4.00;3.00;;;;;11.13;50.69;100290.03;6093511;23;45404;-79
2021/12/09 14:48:01;;;;;;;;;3.33;3.33;;;;;11.26;50.51;100322.25;6091686;23;45980;-80
2021/12/09 14:50:31;;;;;;;;;1.00;1.00;;;;;11.17;50.96;100304.94;6066567;23;46085;-80
2021/12/09 14:52:57;;;;;;;;;4.33;4.33;;;;;11.26;51.09;100310.72;6066421;23;45231;-80
2021/12/09 14:55:26;;;;;;;;;4.00;3.33;;;;;11.17;50.45;100304.06;6093578;23;45308;-79
2021/12/09 14:58:03;;;;;;;;;7.33;5.00;;;;;11.23;50.68;100311.72;6092014;23;46696;-80
2021/12/09 15:00:49;;;;;;;;;3.00;1.33;;;;;11.23;51.11;100303.72;6091365;23;45333;-80
2021/12/09 15:03:19;;;;;;;;;4.00;2.67;;;;;11.21;51.33;100302.94;6065514;23;45434;-81
2021/12/09 15:05:57;;;;;;;;;4.00;2.00;;;;;11.19;51.28;100291.50;6065423;23;45672;-81
2021/12/09 15:08:24;;;;;;;;;3.67;3.67;;;;;10.94;51.38;100251.97;6093007;23;45713;-80
2021/12/09 15:11:07;;;;;;;;;5.00;1.00;;;;;11.05;51.15;100283.38;6091861;23;45358;-80
2021/12/09 15:13:42;;;;;;;;;5.33;4.00;;;;;10.93;51.56;100260.88;6092413;23;45400;-81
2021/12/09 15:16:08;;;;;;;;;6.00;4.00;;;;;10.91;51.44;100258.31;6066131;23;45538;-80
2021/12/09 15:18:38;;;;;;;;;1.00;1.00;;;;;10.85;51.66;100255.97;6064887;23;48218;-81
2021/12/09 15:21:17;;;;;;;;;3.00;3.00;;;;;10.95;51.72;100275.84;6092228;23;45308;-80
2021/12/09 15:23:47;;;;;;;;;3.67;2.33;;;;;10.68;51.49;100235.53;6093348;23;45326;-79
2021/12/09 15:26:24;;;;;;;;;5.67;4.00;;;;;10.84;52.10;100266.69;6093213;23;45335;-80
2021/12/09 15:29:15;;;;;;;;;3.33;3.00;;;;;10.84;52.41;100278.25;6091791;23;45359;-79
2021/12/09 15:31:43;;;;;;;;;1.33;1.33;;;;;10.84;52.42;100285.34;6090915;23;45369;-79
2021/12/09 15:34:22;;;;;;;;;6.00;4.00;;;;;10.77;52.49;100280.38;6066175;23;45388;-79
2021/12/09 15:36:58;;;;;;;;;6.67;2.00;;;;;9.40;52.67;100065.41;6093073;23;45338;-80
2021/12/09 15:39:30;;;;;;;;;6.67;5.00;;;;;10.61;53.25;100282.09;6066426;23;47357;-79
2021/12/09 15:42:09;;;;;;;;;3.67;3.67;;;;;10.70;53.48;100283.41;6092145;23;45339;-80
2021/12/09 15:44:43;;;;;;;;;2.67;2.67;;;;;10.47;53.50;100252.63;6092322;23;45389;-80
2021/12/09 15:47:16;;;;;;;;;4.67;3.33;;;;;10.51;53.56;100264.84;6091319;23;45447;-80
2021/12/09 15:49:46;;;;;;;;;5.00;4.00;;;;;10.62;53.64;100275.81;6092140;23;46574;-79
2021/12/09 15:52:13;;;;;;;;;2.00;2.00;;;;;10.33;53.19;100237.34;6091901;23;45307;-79
2021/12/09 15:54:48;;;;;;;;;4.67;1.67;;;;;10.28;53.29;100239.38;6092175;23;45382;-80
2021/12/09 15:57:20;;;;;;;;;6.00;3.33;;;;;10.47;53.80;100274.81;6092441;23;45523;-80
2021/12/09 15:59:47;;;;;;;;;6.00;3.00;;;;;10.49;53.93;100285.41;6091373;23;45429;-81
2021/12/09 16:02:17;;;;;;;;;4.00;4.00;;;;;10.49;53.72;100280.94;6090006;23;45266;-79
2021/12/09 16:04:45;;;;;;;;;69.25;52.25;;;;;10.19;54.03;100227.38;6091615;23;45375;-79
2021/12/09 16:07:10;;;;;;;;;6.00;5.67;;;;;10.40;54.11;100261.88;6092291;23;45534;-79
2021/12/09 16:09:36;;;;;;;;;4.67;3.67;;;;;10.43;54.07;100278.56;6092024;23;45658;-79
2021/12/09 16:12:03;;;;;;;;;6.67;4.00;;;;;10.19;54.29;100264.66;6092853;23;45426;-80
2021/12/09 16:14:31;;;;;;;;;3.00;3.00;;;;;10.15;54.61;100276.38;6093621;23;45248;-79
2021/12/09 16:17:01;;;;;;;;;6.00;3.67;;;;;10.07;54.95;100271.44;6067308;23;45301;-79
2021/12/09 16:19:35;;;;;;;;;7.33;3.67;;;;;9.86;54.95;100230.78;6093517;23;45930;-79
2021/12/09 16:24:49;;;;;;;;;3.67;3.67;;;;;10.00;55.39;100274.50;6093271;23;45377;-80
2021/12/09 16:27:17;;;;;;;;;3.00;3.00;;;;;9.82;55.51;100247.81;6093327;23;45327;-79
2021/12/09 16:29:42;;;;;;;;;4.00;4.00;;;;;9.92;55.59;100267.72;6092469;23;45398;-79
2021/12/09 16:32:09;;;;;;;;;6.67;4.33;;;;;9.77;55.26;100260.50;6092866;23;45671;-79
2021/12/09 16:34:35;;;;;;;;;5.67;3.67;;;;;9.89;55.80;100264.34;6093658;23;45460;-80
2021/12/09 16:37:01;;;;;;;;;6.33;5.00;;;;;9.86;55.45;100257.38;6093811;23;45484;-80
2021/12/09 16:39:26;;;;;;;;;4.00;4.00;;;;;9.76;55.67;100240.13;6092763;23;45501;-79
2021/12/09 16:41:52;;;;;;;;;4.67;4.67;;;;;9.66;55.63;100230.88;6093646;23;45320;-79
2021/12/09 16:44:17;;;;;;;;;4.67;4.67;;;;;9.60;55.83;100218.72;6092754;23;45454;-79
2021/12/09 16:46:45;;;;;;;;;7.00;7.00;;;;;9.81;56.08;100255.88;6093708;23;45306;-79
2021/12/09 16:49:10;;;;;;;;;3.33;3.33;;;;;9.80;55.65;100259.47;6093005;23;46261;-78
2021/12/09 16:51:36;;;;;;;;;5.67;4.00;;;;;9.55;56.00;100211.91;6092562;23;45328;-78
2021/12/09 16:54:02;;;;;;;;;5.00;5.00;;;;;9.54;56.31;100212.84;6093356;23;45422;-80
2021/12/09 16:59:29;;;;;;;;;4.33;3.33;;;;;9.76;55.74;100234.78;6069028;23;46529;-79
2021/12/09 17:01:58;;;;;;;;;3.33;3.33;;;;;9.69;56.10;100231.59;6092096;23;45401;-79
2021/12/09 17:04:24;;;;;;;;;7.33;5.67;;;;;9.73;56.07;100227.81;6092383;23;45243;-80
2021/12/09 17:06:51;;;;;;;;;8.00;5.00;;;;;9.73;56.22;100227.81;6093299;23;45347;-79
2021/12/09 17:09:16;;;;;;;;;4.67;3.33;;;;;9.52;56.25;100188.97;6091561;23;46179;-80
2021/12/09 17:11:43;;;;;;;;;2.00;2.00;;;;;9.58;56.31;100219.75;6092192;23;45480;-80
2021/12/09 17:14:11;;;;;;;;;8.00;4.67;;;;;8.84;56.50;100077.84;6092316;23;45341;-81
2021/12/09 17:16:36;;;;;;;;;6.67;6.00;;;;;9.34;56.53;100169.44;6092844;23;45328;-79
2021/12/09 17:19:03;;;;;;;;;6.67;5.00;;;;;9.63;56.39;100223.03;6092529;23;45996;-79
2021/12/09 17:21:28;;;;;;;;;5.00;5.00;;;;;9.34;56.95;100174.78;6091579;23;45470;-80
2021/12/09 17:23:54;;;;;;;;;6.00;6.00;;;;;9.46;56.98;100202.59;6092474;23;45382;-79
2021/12/09 17:26:20;;;;;;;;;9.00;4.33;;;;;9.54;56.79;100211.03;6092338;23;45577;-78
2021/12/09 17:28:46;;;;;;;;;5.00;5.00;;;;;9.47;57.46;100196.31;6091366;23;46459;-79